sensor_id;sensor_type;location;lat;lon;timestamp;P1;durP1;ratioP1;P2;durP2;ratioP2
41480;SDS011;27217;51.220;5.308;2023-04-25T00:01:49;22.48;;;6.22;;
41480;SDS011;27217;51.220;5.308;2023-04-25T00:04:16;24.30;;;7.47;;
41480;SDS011;27217;51.220;5.308;2023-04-25T00:06:41;22.25;;;5.82;;
41480;SDS011;27217;51.220;5.308;2023-04-25T00:09:08;24.02;;;6.63;;
41480;SDS011;27217;51.220;5.308;2023-04-25T00:11:35;30.05;;;6.32;;
41480;SDS011;27217;51.220;5.308;2023-04-25T00:14:01;24.48;;;5.32;;
41480;SDS011;27217;51.220;5.308;2023-04-25T00:16:28;29.48;;;6.32;;
41480;SDS011;27217;51.220;5.308;2023-04-25T00:18:59;19.30;;;6.80;;
41480;SDS011;27217;51.220;5.308;2023-04-25T00:21:27;21.83;;;6.03;;
41480;SDS011;27217;51.220;5.308;2023-04-25T00:23:54;23.60;;;5.32;;
41480;SDS011;27217;51.220;5.308;2023-04-25T00:26:20;23.88;;;6.25;;
41480;SDS011;27217;51.220;5.308;2023-04-25T00:28:46;29.52;;;6.35;;
41480;SDS011;27217;51.220;5.308;2023-04-25T00:31:13;23.40;;;6.57;;
41480;SDS011;27217;51.220;5.308;2023-04-25T00:33:39;32.30;;;6.38;;
41480;SDS011;27217;51.220;5.308;2023-04-25T00:36:05;23.00;;;6.03;;
41480;SDS011;27217;51.220;5.308;2023-04-25T00:38:31;25.33;;;7.57;;
41480;SDS011;27217;51.220;5.308;2023-04-25T00:41:00;16.42;;;5.10;;
41480;SDS011;27217;51.220;5.308;2023-04-25T00:43:27;24.85;;;6.05;;
41480;SDS011;27217;51.220;5.308;2023-04-25T00:45:53;26.45;;;7.93;;
41480;SDS011;27217;51.220;5.308;2023-04-25T00:48:21;24.55;;;6.15;;
41480;SDS011;27217;51.220;5.308;2023-04-25T00:50:54;23.90;;;6.22;;
41480;SDS011;27217;51.220;5.308;2023-04-25T00:53:22;24.00;;;7.60;;
41480;SDS011;27217;51.220;5.308;2023-04-25T00:55:49;36.90;;;6.78;;
41480;SDS011;27217;51.220;5.308;2023-04-25T00:58:16;28.77;;;6.85;;
41480;SDS011;27217;51.220;5.308;2023-04-25T01:00:44;27.05;;;6.45;;
41480;SDS011;27217;51.220;5.308;2023-04-25T01:03:11;28.70;;;7.20;;
41480;SDS011;27217;51.220;5.308;2023-04-25T01:05:41;33.55;;;6.78;;
41480;SDS011;27217;51.220;5.308;2023-04-25T01:08:08;22.45;;;6.20;;
41480;SDS011;27217;51.220;5.308;2023-04-25T01:10:34;29.73;;;6.20;;
41480;SDS011;27217;51.220;5.308;2023-04-25T01:13:01;31.33;;;7.18;;
41480;SDS011;27217;51.220;5.308;2023-04-25T01:15:27;30.05;;;7.50;;
41480;SDS011;27217;51.220;5.308;2023-04-25T01:17:56;27.20;;;6.90;;
41480;SDS011;27217;51.220;5.308;2023-04-25T01:20:23;25.00;;;6.68;;
41480;SDS011;27217;51.220;5.308;2023-04-25T01:22:52;34.92;;;8.20;;
41480;SDS011;27217;51.220;5.308;2023-04-25T01:25:20;24.20;;;6.53;;
41480;SDS011;27217;51.220;5.308;2023-04-25T01:27:48;28.83;;;6.85;;
41480;SDS011;27217;51.220;5.308;2023-04-25T01:30:14;28.83;;;7.57;;
41480;SDS011;27217;51.220;5.308;2023-04-25T01:32:41;27.30;;;9.02;;
41480;SDS011;27217;51.220;5.308;2023-04-25T01:35:09;21.75;;;6.82;;
41480;SDS011;27217;51.220;5.308;2023-04-25T01:37:39;28.15;;;7.50;;
41480;SDS011;27217;51.220;5.308;2023-04-25T01:40:06;31.95;;;7.47;;
41480;SDS011;27217;51.220;5.308;2023-04-25T01:42:34;27.75;;;7.80;;
41480;SDS011;27217;51.220;5.308;2023-04-25T01:45:01;29.40;;;7.00;;
41480;SDS011;27217;51.220;5.308;2023-04-25T01:47:27;27.10;;;7.10;;
41480;SDS011;27217;51.220;5.308;2023-04-25T01:49:53;30.08;;;8.40;;
41480;SDS011;27217;51.220;5.308;2023-04-25T01:52:19;24.10;;;7.50;;
41480;SDS011;27217;51.220;5.308;2023-04-25T01:54:46;36.17;;;9.05;;
41480;SDS011;27217;51.220;5.308;2023-04-25T01:57:14;27.38;;;7.82;;
41480;SDS011;27217;51.220;5.308;2023-04-25T01:59:39;29.10;;;8.77;;
41480;SDS011;27217;51.220;5.308;2023-04-25T02:02:07;31.58;;;8.23;;
41480;SDS011;27217;51.220;5.308;2023-04-25T02:04:32;30.70;;;7.95;;
41480;SDS011;27217;51.220;5.308;2023-04-25T02:06:58;41.83;;;9.55;;
41480;SDS011;27217;51.220;5.308;2023-04-25T02:09:25;33.38;;;8.27;;
41480;SDS011;27217;51.220;5.308;2023-04-25T02:11:50;40.17;;;9.52;;
41480;SDS011;27217;51.220;5.308;2023-04-25T02:14:16;46.50;;;9.40;;
41480;SDS011;27217;51.220;5.308;2023-04-25T02:16:45;34.90;;;7.82;;
41480;SDS011;27217;51.220;5.308;2023-04-25T02:19:11;23.05;;;8.73;;
41480;SDS011;27217;51.220;5.308;2023-04-25T02:21:37;40.60;;;9.40;;
41480;SDS011;27217;51.220;5.308;2023-04-25T02:24:03;25.33;;;7.90;;
41480;SDS011;27217;51.220;5.308;2023-04-25T02:26:29;26.67;;;8.35;;
41480;SDS011;27217;51.220;5.308;2023-04-25T02:28:58;30.88;;;8.88;;
41480;SDS011;27217;51.220;5.308;2023-04-25T02:31:24;30.83;;;8.63;;
41480;SDS011;27217;51.220;5.308;2023-04-25T02:33:51;24.75;;;8.95;;
41480;SDS011;27217;51.220;5.308;2023-04-25T02:36:16;28.02;;;8.13;;
41480;SDS011;27217;51.220;5.308;2023-04-25T02:38:42;39.78;;;10.65;;
41480;SDS011;27217;51.220;5.308;2023-04-25T02:41:08;27.17;;;9.05;;
41480;SDS011;27217;51.220;5.308;2023-04-25T02:43:35;29.88;;;9.27;;
41480;SDS011;27217;51.220;5.308;2023-04-25T02:46:00;36.17;;;8.25;;
41480;SDS011;27217;51.220;5.308;2023-04-25T02:48:26;28.75;;;8.75;;
41480;SDS011;27217;51.220;5.308;2023-04-25T02:50:52;26.70;;;8.50;;
41480;SDS011;27217;51.220;5.308;2023-04-25T02:53:17;32.42;;;8.80;;
41480;SDS011;27217;51.220;5.308;2023-04-25T02:55:43;51.28;;;9.32;;
41480;SDS011;27217;51.220;5.308;2023-04-25T02:58:09;27.40;;;8.27;;
41480;SDS011;27217;51.220;5.308;2023-04-25T03:00:35;41.30;;;8.55;;
41480;SDS011;27217;51.220;5.308;2023-04-25T03:03:00;34.90;;;8.30;;
41480;SDS011;27217;51.220;5.308;2023-04-25T03:05:27;37.05;;;8.25;;
41480;SDS011;27217;51.220;5.308;2023-04-25T03:07:52;29.10;;;8.23;;
41480;SDS011;27217;51.220;5.308;2023-04-25T03:10:18;33.00;;;8.55;;
41480;SDS011;27217;51.220;5.308;2023-04-25T03:12:45;34.85;;;8.05;;
41480;SDS011;27217;51.220;5.308;2023-04-25T03:15:10;34.25;;;8.23;;
41480;SDS011;27217;51.220;5.308;2023-04-25T03:17:36;39.83;;;7.13;;
41480;SDS011;27217;51.220;5.308;2023-04-25T03:20:02;23.42;;;6.50;;
41480;SDS011;27217;51.220;5.308;2023-04-25T03:22:29;34.22;;;7.30;;
41480;SDS011;27217;51.220;5.308;2023-04-25T03:24:55;30.75;;;8.48;;
41480;SDS011;27217;51.220;5.308;2023-04-25T03:27:21;25.30;;;7.20;;
41480;SDS011;27217;51.220;5.308;2023-04-25T03:29:46;34.90;;;9.30;;
41480;SDS011;27217;51.220;5.308;2023-04-25T03:32:12;34.03;;;8.82;;
41480;SDS011;27217;51.220;5.308;2023-04-25T03:34:38;30.45;;;9.48;;
41480;SDS011;27217;51.220;5.308;2023-04-25T03:37:03;28.58;;;8.57;;
41480;SDS011;27217;51.220;5.308;2023-04-25T03:39:29;33.47;;;8.85;;
41480;SDS011;27217;51.220;5.308;2023-04-25T03:41:55;39.28;;;9.80;;
41480;SDS011;27217;51.220;5.308;2023-04-25T03:44:20;29.27;;;9.18;;
41480;SDS011;27217;51.220;5.308;2023-04-25T03:46:46;39.38;;;10.02;;
41480;SDS011;27217;51.220;5.308;2023-04-25T03:49:12;25.35;;;10.02;;
41480;SDS011;27217;51.220;5.308;2023-04-25T03:51:38;33.00;;;8.82;;
41480;SDS011;27217;51.220;5.308;2023-04-25T03:54:04;22.45;;;8.68;;
41480;SDS011;27217;51.220;5.308;2023-04-25T03:56:30;40.08;;;9.32;;
41480;SDS011;27217;51.220;5.308;2023-04-25T03:58:55;35.65;;;8.50;;
41480;SDS011;27217;51.220;5.308;2023-04-25T04:01:22;29.20;;;8.88;;
41480;SDS011;27217;51.220;5.308;2023-04-25T04:03:48;33.10;;;9.15;;
41480;SDS011;27217;51.220;5.308;2023-04-25T04:06:14;33.03;;;9.48;;
41480;SDS011;27217;51.220;5.308;2023-04-25T04:08:40;31.30;;;8.52;;
41480;SDS011;27217;51.220;5.308;2023-04-25T04:11:06;30.65;;;8.80;;
41480;SDS011;27217;51.220;5.308;2023-04-25T04:13:31;37.15;;;8.82;;
41480;SDS011;27217;51.220;5.308;2023-04-25T04:15:57;36.13;;;9.63;;
41480;SDS011;27217;51.220;5.308;2023-04-25T04:18:23;29.67;;;9.20;;
41480;SDS011;27217;51.220;5.308;2023-04-25T04:20:50;30.38;;;9.15;;
41480;SDS011;27217;51.220;5.308;2023-04-25T04:23:16;38.55;;;10.90;;
41480;SDS011;27217;51.220;5.308;2023-04-25T04:25:41;32.47;;;10.00;;
41480;SDS011;27217;51.220;5.308;2023-04-25T04:28:07;39.40;;;9.18;;
41480;SDS011;27217;51.220;5.308;2023-04-25T04:30:33;34.85;;;8.73;;
41480;SDS011;27217;51.220;5.308;2023-04-25T04:33:01;38.13;;;9.82;;
41480;SDS011;27217;51.220;5.308;2023-04-25T04:35:28;30.80;;;8.82;;
41480;SDS011;27217;51.220;5.308;2023-04-25T04:37:57;26.30;;;8.93;;
41480;SDS011;27217;51.220;5.308;2023-04-25T04:40:23;30.13;;;8.07;;
41480;SDS011;27217;51.220;5.308;2023-04-25T04:42:48;29.70;;;7.93;;
41480;SDS011;27217;51.220;5.308;2023-04-25T04:45:15;32.78;;;8.20;;
41480;SDS011;27217;51.220;5.308;2023-04-25T04:47:41;28.15;;;8.02;;
41480;SDS011;27217;51.220;5.308;2023-04-25T04:50:07;25.58;;;6.65;;
41480;SDS011;27217;51.220;5.308;2023-04-25T04:52:35;27.08;;;6.93;;
41480;SDS011;27217;51.220;5.308;2023-04-25T04:55:02;48.45;;;9.05;;
41480;SDS011;27217;51.220;5.308;2023-04-25T04:57:29;29.13;;;6.80;;
41480;SDS011;27217;51.220;5.308;2023-04-25T04:59:56;31.88;;;7.50;;
41480;SDS011;27217;51.220;5.308;2023-04-25T05:02:22;50.42;;;7.40;;
41480;SDS011;27217;51.220;5.308;2023-04-25T05:04:47;26.77;;;7.45;;
41480;SDS011;27217;51.220;5.308;2023-04-25T05:07:13;27.60;;;7.47;;
41480;SDS011;27217;51.220;5.308;2023-04-25T05:09:39;25.52;;;7.28;;
41480;SDS011;27217;51.220;5.308;2023-04-25T05:12:05;24.98;;;6.72;;
41480;SDS011;27217;51.220;5.308;2023-04-25T05:14:32;37.92;;;8.52;;
41480;SDS011;27217;51.220;5.308;2023-04-25T05:16:58;30.38;;;7.68;;
41480;SDS011;27217;51.220;5.308;2023-04-25T05:19:24;25.70;;;7.60;;
41480;SDS011;27217;51.220;5.308;2023-04-25T05:21:50;31.08;;;7.13;;
41480;SDS011;27217;51.220;5.308;2023-04-25T05:24:16;33.72;;;7.68;;
41480;SDS011;27217;51.220;5.308;2023-04-25T05:26:42;33.85;;;8.25;;
41480;SDS011;27217;51.220;5.308;2023-04-25T05:29:08;33.08;;;9.63;;
41480;SDS011;27217;51.220;5.308;2023-04-25T05:31:35;41.13;;;9.35;;
41480;SDS011;27217;51.220;5.308;2023-04-25T05:34:02;25.63;;;8.00;;
41480;SDS011;27217;51.220;5.308;2023-04-25T05:36:28;28.00;;;7.70;;
41480;SDS011;27217;51.220;5.308;2023-04-25T05:38:55;26.65;;;7.70;;
41480;SDS011;27217;51.220;5.308;2023-04-25T05:41:22;28.60;;;7.57;;
41480;SDS011;27217;51.220;5.308;2023-04-25T05:43:47;27.98;;;7.60;;
41480;SDS011;27217;51.220;5.308;2023-04-25T05:46:14;37.47;;;8.60;;
41480;SDS011;27217;51.220;5.308;2023-04-25T05:48:41;31.38;;;7.80;;
41480;SDS011;27217;51.220;5.308;2023-04-25T05:51:07;24.65;;;8.07;;
41480;SDS011;27217;51.220;5.308;2023-04-25T05:53:34;35.40;;;8.70;;
41480;SDS011;27217;51.220;5.308;2023-04-25T05:56:00;32.60;;;7.82;;
41480;SDS011;27217;51.220;5.308;2023-04-25T05:58:26;29.25;;;6.75;;
41480;SDS011;27217;51.220;5.308;2023-04-25T06:00:51;27.58;;;8.05;;
41480;SDS011;27217;51.220;5.308;2023-04-25T06:03:18;46.55;;;7.65;;
41480;SDS011;27217;51.220;5.308;2023-04-25T06:05:45;32.95;;;9.13;;
41480;SDS011;27217;51.220;5.308;2023-04-25T06:08:11;28.23;;;7.28;;
41480;SDS011;27217;51.220;5.308;2023-04-25T06:10:36;20.00;;;7.05;;
41480;SDS011;27217;51.220;5.308;2023-04-25T06:13:03;27.45;;;7.20;;
41480;SDS011;27217;51.220;5.308;2023-04-25T06:15:30;21.55;;;7.63;;
41480;SDS011;27217;51.220;5.308;2023-04-25T06:17:57;29.10;;;7.40;;
41480;SDS011;27217;51.220;5.308;2023-04-25T06:20:23;41.10;;;9.40;;
41480;SDS011;27217;51.220;5.308;2023-04-25T06:22:49;27.50;;;6.88;;
41480;SDS011;27217;51.220;5.308;2023-04-25T06:25:16;25.70;;;6.53;;
41480;SDS011;27217;51.220;5.308;2023-04-25T06:27:42;18.67;;;6.07;;
41480;SDS011;27217;51.220;5.308;2023-04-25T06:30:08;15.20;;;5.43;;
41480;SDS011;27217;51.220;5.308;2023-04-25T06:32:36;14.85;;;5.80;;
41480;SDS011;27217;51.220;5.308;2023-04-25T06:35:02;31.67;;;5.47;;
41480;SDS011;27217;51.220;5.308;2023-04-25T06:37:28;27.23;;;5.57;;
41480;SDS011;27217;51.220;5.308;2023-04-25T06:39:55;14.82;;;5.50;;
41480;SDS011;27217;51.220;5.308;2023-04-25T06:42:22;16.90;;;5.60;;
41480;SDS011;27217;51.220;5.308;2023-04-25T06:44:48;21.83;;;6.35;;
41480;SDS011;27217;51.220;5.308;2023-04-25T06:47:14;21.27;;;6.15;;
41480;SDS011;27217;51.220;5.308;2023-04-25T06:49:40;20.42;;;8.40;;
41480;SDS011;27217;51.220;5.308;2023-04-25T06:52:07;22.38;;;7.60;;
41480;SDS011;27217;51.220;5.308;2023-04-25T06:54:33;20.85;;;5.45;;
41480;SDS011;27217;51.220;5.308;2023-04-25T06:56:59;27.80;;;5.57;;
41480;SDS011;27217;51.220;5.308;2023-04-25T06:59:25;22.20;;;4.78;;
41480;SDS011;27217;51.220;5.308;2023-04-25T07:01:51;22.73;;;5.57;;
41480;SDS011;27217;51.220;5.308;2023-04-25T07:04:17;19.30;;;5.20;;
41480;SDS011;27217;51.220;5.308;2023-04-25T07:06:43;15.93;;;4.97;;
41480;SDS011;27217;51.220;5.308;2023-04-25T07:09:12;20.25;;;5.65;;
41480;SDS011;27217;51.220;5.308;2023-04-25T07:11:43;33.75;;;6.25;;
41480;SDS011;27217;51.220;5.308;2023-04-25T07:14:09;17.52;;;5.32;;
41480;SDS011;27217;51.220;5.308;2023-04-25T07:16:34;16.27;;;5.03;;
41480;SDS011;27217;51.220;5.308;2023-04-25T07:19:00;22.88;;;5.15;;
41480;SDS011;27217;51.220;5.308;2023-04-25T07:21:26;15.00;;;3.92;;
41480;SDS011;27217;51.220;5.308;2023-04-25T07:23:52;9.20;;;3.72;;
41480;SDS011;27217;51.220;5.308;2023-04-25T07:26:17;17.00;;;4.35;;
41480;SDS011;27217;51.220;5.308;2023-04-25T07:28:43;10.05;;;2.88;;
41480;SDS011;27217;51.220;5.308;2023-04-25T07:31:09;12.73;;;2.88;;
41480;SDS011;27217;51.220;5.308;2023-04-25T07:33:35;13.68;;;3.00;;
41480;SDS011;27217;51.220;5.308;2023-04-25T07:36:03;10.30;;;2.58;;
41480;SDS011;27217;51.220;5.308;2023-04-25T07:38:32;9.68;;;3.22;;
41480;SDS011;27217;51.220;5.308;2023-04-25T07:40:58;9.68;;;3.30;;
41480;SDS011;27217;51.220;5.308;2023-04-25T07:43:25;13.63;;;3.83;;
41480;SDS011;27217;51.220;5.308;2023-04-25T07:45:51;18.98;;;2.67;;
41480;SDS011;27217;51.220;5.308;2023-04-25T07:48:17;13.05;;;2.63;;
41480;SDS011;27217;51.220;5.308;2023-04-25T07:50:48;12.10;;;2.40;;
41480;SDS011;27217;51.220;5.308;2023-04-25T07:53:14;7.47;;;1.88;;
41480;SDS011;27217;51.220;5.308;2023-04-25T07:55:42;14.25;;;2.60;;
41480;SDS011;27217;51.220;5.308;2023-04-25T07:58:09;11.45;;;1.98;;
41480;SDS011;27217;51.220;5.308;2023-04-25T08:00:37;14.35;;;2.92;;
41480;SDS011;27217;51.220;5.308;2023-04-25T08:03:03;13.15;;;2.72;;
41480;SDS011;27217;51.220;5.308;2023-04-25T08:05:28;7.60;;;2.10;;
41480;SDS011;27217;51.220;5.308;2023-04-25T08:07:54;13.10;;;2.50;;
41480;SDS011;27217;51.220;5.308;2023-04-25T08:10:21;11.05;;;2.40;;
41480;SDS011;27217;51.220;5.308;2023-04-25T08:12:48;14.93;;;2.20;;
41480;SDS011;27217;51.220;5.308;2023-04-25T08:15:14;13.68;;;2.63;;
41480;SDS011;27217;51.220;5.308;2023-04-25T08:17:39;16.13;;;2.90;;
41480;SDS011;27217;51.220;5.308;2023-04-25T08:20:05;15.23;;;2.50;;
41480;SDS011;27217;51.220;5.308;2023-04-25T08:22:31;9.18;;;2.67;;
41480;SDS011;27217;51.220;5.308;2023-04-25T08:24:57;14.57;;;2.50;;
41480;SDS011;27217;51.220;5.308;2023-04-25T08:27:23;23.10;;;3.33;;
41480;SDS011;27217;51.220;5.308;2023-04-25T08:29:49;9.88;;;2.78;;
41480;SDS011;27217;51.220;5.308;2023-04-25T08:32:15;15.95;;;2.20;;
41480;SDS011;27217;51.220;5.308;2023-04-25T08:34:41;16.48;;;2.90;;
41480;SDS011;27217;51.220;5.308;2023-04-25T08:37:08;11.75;;;2.50;;
41480;SDS011;27217;51.220;5.308;2023-04-25T08:39:35;14.05;;;3.20;;
41480;SDS011;27217;51.220;5.308;2023-04-25T08:42:02;11.05;;;2.53;;
41480;SDS011;27217;51.220;5.308;2023-04-25T08:44:33;13.18;;;2.65;;
41480;SDS011;27217;51.220;5.308;2023-04-25T08:47:01;18.38;;;3.78;;
41480;SDS011;27217;51.220;5.308;2023-04-25T08:49:31;20.10;;;2.88;;
41480;SDS011;27217;51.220;5.308;2023-04-25T08:51:59;13.52;;;3.28;;
41480;SDS011;27217;51.220;5.308;2023-04-25T08:54:27;14.50;;;2.53;;
41480;SDS011;27217;51.220;5.308;2023-04-25T08:56:54;12.40;;;3.38;;
41480;SDS011;27217;51.220;5.308;2023-04-25T08:59:26;13.43;;;2.17;;
41480;SDS011;27217;51.220;5.308;2023-04-25T09:01:53;13.63;;;1.70;;
41480;SDS011;27217;51.220;5.308;2023-04-25T09:04:19;10.65;;;2.10;;
41480;SDS011;27217;51.220;5.308;2023-04-25T09:06:46;16.05;;;2.13;;
41480;SDS011;27217;51.220;5.308;2023-04-25T09:09:12;13.48;;;2.47;;
41480;SDS011;27217;51.220;5.308;2023-04-25T09:11:39;11.75;;;1.67;;
41480;SDS011;27217;51.220;5.308;2023-04-25T09:14:15;14.95;;;2.15;;
41480;SDS011;27217;51.220;5.308;2023-04-25T09:16:58;13.88;;;2.70;;
41480;SDS011;27217;51.220;5.308;2023-04-25T09:22:00;10.82;;;1.65;;
41480;SDS011;27217;51.220;5.308;2023-04-25T09:27:03;17.65;;;2.83;;
41480;SDS011;27217;51.220;5.308;2023-04-25T09:29:31;11.43;;;1.52;;
41480;SDS011;27217;51.220;5.308;2023-04-25T09:32:10;13.27;;;1.58;;
41480;SDS011;27217;51.220;5.308;2023-04-25T09:34:50;8.20;;;1.50;;
41480;SDS011;27217;51.220;5.308;2023-04-25T09:39:45;10.20;;;1.90;;
41480;SDS011;27217;51.220;5.308;2023-04-25T09:42:13;10.38;;;1.60;;
41480;SDS011;27217;51.220;5.308;2023-04-25T09:44:44;7.80;;;2.33;;
41480;SDS011;27217;51.220;5.308;2023-04-25T09:47:12;8.27;;;2.08;;
41480;SDS011;27217;51.220;5.308;2023-04-25T09:49:41;19.42;;;1.67;;
41480;SDS011;27217;51.220;5.308;2023-04-25T09:52:08;5.75;;;1.08;;
41480;SDS011;27217;51.220;5.308;2023-04-25T09:54:34;7.75;;;1.30;;
41480;SDS011;27217;51.220;5.308;2023-04-25T09:57:09;5.45;;;1.48;;
41480;SDS011;27217;51.220;5.308;2023-04-25T09:59:44;8.35;;;1.50;;
41480;SDS011;27217;51.220;5.308;2023-04-25T10:02:11;6.95;;;1.40;;
41480;SDS011;27217;51.220;5.308;2023-04-25T10:04:38;9.32;;;2.05;;
41480;SDS011;27217;51.220;5.308;2023-04-25T10:07:06;14.70;;;1.90;;
41480;SDS011;27217;51.220;5.308;2023-04-25T10:09:33;5.53;;;1.75;;
41480;SDS011;27217;51.220;5.308;2023-04-25T10:12:02;8.43;;;1.40;;
41480;SDS011;27217;51.220;5.308;2023-04-25T10:14:32;8.70;;;1.70;;
41480;SDS011;27217;51.220;5.308;2023-04-25T10:17:05;4.63;;;1.60;;
41480;SDS011;27217;51.220;5.308;2023-04-25T10:19:35;5.30;;;1.30;;
41480;SDS011;27217;51.220;5.308;2023-04-25T10:22:10;5.60;;;1.88;;
41480;SDS011;27217;51.220;5.308;2023-04-25T10:24:43;9.73;;;1.85;;
41480;SDS011;27217;51.220;5.308;2023-04-25T10:27:11;4.35;;;1.25;;
41480;SDS011;27217;51.220;5.308;2023-04-25T10:29:37;8.70;;;1.50;;
41480;SDS011;27217;51.220;5.308;2023-04-25T10:32:04;4.57;;;1.00;;
41480;SDS011;27217;51.220;5.308;2023-04-25T10:34:40;6.25;;;0.98;;
41480;SDS011;27217;51.220;5.308;2023-04-25T10:37:08;5.82;;;1.40;;
41480;SDS011;27217;51.220;5.308;2023-04-25T10:39:35;5.38;;;1.33;;
41480;SDS011;27217;51.220;5.308;2023-04-25T10:42:03;6.30;;;1.58;;
41480;SDS011;27217;51.220;5.308;2023-04-25T10:44:29;5.88;;;1.30;;
41480;SDS011;27217;51.220;5.308;2023-04-25T10:46:56;4.50;;;1.30;;
41480;SDS011;27217;51.220;5.308;2023-04-25T10:49:44;4.38;;;1.70;;
41480;SDS011;27217;51.220;5.308;2023-04-25T10:55:07;10.95;;;1.70;;
41480;SDS011;27217;51.220;5.308;2023-04-25T10:57:37;7.50;;;1.92;;
41480;SDS011;27217;51.220;5.308;2023-04-25T11:03:01;7.45;;;1.13;;
41480;SDS011;27217;51.220;5.308;2023-04-25T11:08:02;6.75;;;1.83;;
41480;SDS011;27217;51.220;5.308;2023-04-25T11:10:34;6.07;;;1.30;;
41480;SDS011;27217;51.220;5.308;2023-04-25T11:13:00;2.28;;;1.08;;
41480;SDS011;27217;51.220;5.308;2023-04-25T11:15:26;8.40;;;1.95;;
41480;SDS011;27217;51.220;5.308;2023-04-25T11:17:55;5.35;;;0.98;;
41480;SDS011;27217;51.220;5.308;2023-04-25T11:20:21;8.60;;;1.60;;
41480;SDS011;27217;51.220;5.308;2023-04-25T11:22:50;7.57;;;1.05;;
41480;SDS011;27217;51.220;5.308;2023-04-25T11:25:16;3.03;;;1.20;;
41480;SDS011;27217;51.220;5.308;2023-04-25T11:30:17;6.55;;;1.20;;
41480;SDS011;27217;51.220;5.308;2023-04-25T11:32:44;6.93;;;1.35;;
41480;SDS011;27217;51.220;5.308;2023-04-25T11:35:10;12.90;;;2.33;;
41480;SDS011;27217;51.220;5.308;2023-04-25T11:37:36;5.93;;;1.35;;
41480;SDS011;27217;51.220;5.308;2023-04-25T11:40:04;7.03;;;1.75;;
41480;SDS011;27217;51.220;5.308;2023-04-25T11:42:36;5.97;;;1.38;;
41480;SDS011;27217;51.220;5.308;2023-04-25T11:45:03;9.48;;;1.83;;
41480;SDS011;27217;51.220;5.308;2023-04-25T11:47:31;4.15;;;1.40;;
41480;SDS011;27217;51.220;5.308;2023-04-25T11:49:57;2.28;;;1.10;;
41480;SDS011;27217;51.220;5.308;2023-04-25T11:52:24;6.47;;;1.02;;
41480;SDS011;27217;51.220;5.308;2023-04-25T11:55:00;3.30;;;0.98;;
41480;SDS011;27217;51.220;5.308;2023-04-25T11:57:25;6.63;;;1.35;;
41480;SDS011;27217;51.220;5.308;2023-04-25T11:59:51;4.65;;;1.25;;
41480;SDS011;27217;51.220;5.308;2023-04-25T12:02:24;7.28;;;1.25;;
41480;SDS011;27217;51.220;5.308;2023-04-25T12:04:51;4.57;;;0.98;;
41480;SDS011;27217;51.220;5.308;2023-04-25T12:07:17;4.18;;;1.25;;
41480;SDS011;27217;51.220;5.308;2023-04-25T12:09:51;4.53;;;1.00;;
41480;SDS011;27217;51.220;5.308;2023-04-25T12:12:17;7.32;;;1.38;;
41480;SDS011;27217;51.220;5.308;2023-04-25T12:14:45;3.03;;;1.20;;
41480;SDS011;27217;51.220;5.308;2023-04-25T12:17:16;5.97;;;1.20;;
41480;SDS011;27217;51.220;5.308;2023-04-25T12:19:42;5.40;;;1.42;;
41480;SDS011;27217;51.220;5.308;2023-04-25T12:22:22;2.92;;;0.95;;
41480;SDS011;27217;51.220;5.308;2023-04-25T12:24:49;5.47;;;1.27;;
41480;SDS011;27217;51.220;5.308;2023-04-25T12:27:16;4.47;;;1.08;;
41480;SDS011;27217;51.220;5.308;2023-04-25T12:29:50;4.72;;;2.08;;
41480;SDS011;27217;51.220;5.308;2023-04-25T12:32:19;5.55;;;1.35;;
41480;SDS011;27217;51.220;5.308;2023-04-25T12:34:45;4.57;;;1.35;;
41480;SDS011;27217;51.220;5.308;2023-04-25T12:37:12;5.55;;;1.13;;
41480;SDS011;27217;51.220;5.308;2023-04-25T12:39:38;8.50;;;1.77;;
41480;SDS011;27217;51.220;5.308;2023-04-25T12:42:04;4.18;;;1.42;;
41480;SDS011;27217;51.220;5.308;2023-04-25T12:44:32;4.95;;;1.00;;
41480;SDS011;27217;51.220;5.308;2023-04-25T12:46:58;3.67;;;0.90;;
41480;SDS011;27217;51.220;5.308;2023-04-25T12:49:25;3.85;;;0.82;;
41480;SDS011;27217;51.220;5.308;2023-04-25T12:51:50;7.90;;;1.02;;
41480;SDS011;27217;51.220;5.308;2023-04-25T12:54:16;4.47;;;1.20;;
41480;SDS011;27217;51.220;5.308;2023-04-25T12:56:42;2.80;;;1.00;;
41480;SDS011;27217;51.220;5.308;2023-04-25T12:59:08;7.75;;;1.20;;
41480;SDS011;27217;51.220;5.308;2023-04-25T13:01:34;5.25;;;1.50;;
41480;SDS011;27217;51.220;5.308;2023-04-25T13:04:00;4.15;;;1.52;;
41480;SDS011;27217;51.220;5.308;2023-04-25T13:06:26;6.13;;;1.35;;
41480;SDS011;27217;51.220;5.308;2023-04-25T13:08:52;5.65;;;1.42;;
41480;SDS011;27217;51.220;5.308;2023-04-25T13:11:19;4.85;;;1.40;;
41480;SDS011;27217;51.220;5.308;2023-04-25T13:13:45;6.55;;;1.00;;
41480;SDS011;27217;51.220;5.308;2023-04-25T13:16:11;6.63;;;1.20;;
41480;SDS011;27217;51.220;5.308;2023-04-25T13:18:39;10.73;;;1.77;;
41480;SDS011;27217;51.220;5.308;2023-04-25T13:21:05;3.70;;;1.30;;
41480;SDS011;27217;51.220;5.308;2023-04-25T13:23:31;3.65;;;1.20;;
41480;SDS011;27217;51.220;5.308;2023-04-25T13:25:56;6.90;;;1.52;;
41480;SDS011;27217;51.220;5.308;2023-04-25T13:28:23;7.05;;;1.70;;
41480;SDS011;27217;51.220;5.308;2023-04-25T13:30:49;4.13;;;1.55;;
41480;SDS011;27217;51.220;5.308;2023-04-25T13:33:15;3.92;;;1.10;;
41480;SDS011;27217;51.220;5.308;2023-04-25T13:35:41;6.47;;;1.13;;
41480;SDS011;27217;51.220;5.308;2023-04-25T13:38:07;6.50;;;1.90;;
41480;SDS011;27217;51.220;5.308;2023-04-25T13:40:34;7.25;;;1.77;;
41480;SDS011;27217;51.220;5.308;2023-04-25T13:42:59;4.18;;;1.33;;
41480;SDS011;27217;51.220;5.308;2023-04-25T13:45:26;5.72;;;1.40;;
41480;SDS011;27217;51.220;5.308;2023-04-25T13:47:52;7.95;;;1.30;;
41480;SDS011;27217;51.220;5.308;2023-04-25T13:50:19;3.83;;;1.10;;
41480;SDS011;27217;51.220;5.308;2023-04-25T13:52:45;6.85;;;1.20;;
41480;SDS011;27217;51.220;5.308;2023-04-25T13:55:11;7.13;;;1.40;;
41480;SDS011;27217;51.220;5.308;2023-04-25T13:57:37;5.95;;;1.27;;
41480;SDS011;27217;51.220;5.308;2023-04-25T14:00:03;6.18;;;1.20;;
41480;SDS011;27217;51.220;5.308;2023-04-25T14:02:36;4.65;;;1.40;;
41480;SDS011;27217;51.220;5.308;2023-04-25T14:05:09;6.28;;;1.30;;
41480;SDS011;27217;51.220;5.308;2023-04-25T14:07:35;7.90;;;1.48;;
41480;SDS011;27217;51.220;5.308;2023-04-25T14:10:01;7.32;;;1.20;;
41480;SDS011;27217;51.220;5.308;2023-04-25T14:12:27;11.75;;;1.80;;
41480;SDS011;27217;51.220;5.308;2023-04-25T14:14:56;3.53;;;1.05;;
41480;SDS011;27217;51.220;5.308;2023-04-25T14:17:22;11.35;;;2.33;;
41480;SDS011;27217;51.220;5.308;2023-04-25T14:19:50;3.53;;;1.20;;
41480;SDS011;27217;51.220;5.308;2023-04-25T14:22:16;6.22;;;2.50;;
41480;SDS011;27217;51.220;5.308;2023-04-25T14:24:42;5.80;;;1.38;;
41480;SDS011;27217;51.220;5.308;2023-04-25T14:27:08;10.55;;;1.40;;
41480;SDS011;27217;51.220;5.308;2023-04-25T14:29:34;7.82;;;1.48;;
41480;SDS011;27217;51.220;5.308;2023-04-25T14:31:59;5.80;;;1.73;;
41480;SDS011;27217;51.220;5.308;2023-04-25T14:34:25;9.70;;;1.80;;
41480;SDS011;27217;51.220;5.308;2023-04-25T14:36:51;11.98;;;1.80;;
41480;SDS011;27217;51.220;5.308;2023-04-25T14:39:17;3.95;;;1.10;;
41480;SDS011;27217;51.220;5.308;2023-04-25T14:41:44;18.58;;;2.80;;
41480;SDS011;27217;51.220;5.308;2023-04-25T14:44:10;4.22;;;1.23;;
41480;SDS011;27217;51.220;5.308;2023-04-25T14:46:36;6.20;;;1.55;;
41480;SDS011;27217;51.220;5.308;2023-04-25T14:49:02;5.00;;;1.02;;
41480;SDS011;27217;51.220;5.308;2023-04-25T14:51:28;7.60;;;2.10;;
41480;SDS011;27217;51.220;5.308;2023-04-25T14:53:54;7.55;;;1.40;;
41480;SDS011;27217;51.220;5.308;2023-04-25T14:56:20;11.05;;;1.50;;